createdAt,value
2023-07-04T00:08:40.355Z,14.65
2023-07-04T00:28:40.420Z,14.49
2023-07-04T00:48:40.832Z,14.41
2023-07-04T01:08:41.496Z,14.25
2023-07-04T01:28:40.571Z,14.19
2023-07-04T01:48:40.720Z,13.92
2023-07-04T02:08:40.592Z,13.68
2023-07-04T02:28:40.594Z,13.3
2023-07-04T02:48:40.654Z,13.04
2023-07-04T03:08:40.603Z,13.03
2023-07-04T03:28:40.663Z,12.91
2023-07-04T03:48:40.872Z,12.81
2023-07-04T04:08:40.805Z,12.85
2023-07-04T04:28:40.727Z,13.13
2023-07-04T04:48:40.906Z,14
2023-07-04T05:08:41.024Z,14.65
2023-07-04T05:28:41.001Z,15.3
2023-07-04T05:48:41.000Z,16.21
2023-07-04T06:08:40.990Z,16.78
2023-07-04T06:28:41.074Z,17.32
2023-07-04T06:48:40.937Z,17.79
2023-07-04T07:08:41.084Z,18.63
2023-07-04T07:28:41.200Z,19.36
2023-07-04T07:48:41.305Z,19.64
2023-07-04T08:08:41.167Z,20.01
2023-07-04T09:08:41.338Z,20.87
2023-07-04T09:28:41.309Z,21.68
2023-07-04T09:48:41.291Z,22.86
2023-07-04T10:08:41.405Z,24.46
2023-07-04T10:28:41.221Z,26.39
2023-07-04T10:48:41.431Z,27.59
2023-07-04T11:08:41.390Z,27.93
2023-07-04T11:28:41.463Z,27.34
2023-07-04T11:48:42.153Z,29.08
2023-07-04T12:08:41.466Z,29.53
2023-07-04T12:28:41.549Z,29.01
2023-07-04T13:08:41.582Z,30.57
2023-07-04T13:48:41.875Z,30.37
2023-07-04T14:08:41.641Z,30.48
2023-07-04T14:28:41.629Z,29.6
2023-07-04T14:48:41.686Z,27.68
2023-07-04T15:08:41.827Z,27.37
2023-07-04T15:28:41.747Z,26.37
2023-07-04T15:48:41.863Z,26.72
2023-07-04T16:08:42.400Z,26.48
2023-07-04T16:28:41.812Z,25.95
2023-07-04T16:48:41.777Z,25.34
2023-07-04T17:28:41.846Z,24.37
2023-07-04T17:48:41.897Z,23.99
2023-07-04T18:08:41.929Z,23.64
2023-07-04T18:28:41.983Z,23.18
2023-07-04T18:48:42.056Z,22.45
2023-07-04T19:08:42.217Z,21.42
2023-07-04T19:28:42.076Z,20.47
2023-07-04T19:48:42.035Z,19.72
2023-07-04T20:08:42.709Z,19.1
2023-07-04T20:28:42.391Z,18.42
2023-07-04T20:48:42.186Z,17.83
2023-07-04T21:08:42.218Z,17.24
2023-07-04T21:28:42.430Z,16.91
2023-07-04T21:48:42.205Z,16.94
2023-07-04T22:08:42.236Z,17.15
2023-07-04T22:28:42.318Z,17.3
2023-07-04T22:48:42.358Z,17.33
2023-07-04T23:08:42.306Z,17.46
2023-07-04T23:28:42.385Z,17.91
2023-07-04T23:48:42.455Z,17.86
